createdAt,value
2018-07-24T00:01:13.261Z,98187.83
2018-07-24T00:03:42.381Z,98183.14
2018-07-24T00:06:11.486Z,98181.43
2018-07-24T00:08:40.593Z,98180.23
2018-07-24T00:11:09.786Z,98177.33
2018-07-24T00:13:39.513Z,98178.96
2018-07-24T00:16:08.673Z,98178.13
2018-07-24T00:18:37.785Z,98178.13
2018-07-24T00:21:07.414Z,98174.89
2018-07-24T00:23:36.689Z,98172.77
2018-07-24T00:26:05.817Z,98176.63
2018-07-24T00:28:35.798Z,98173.39
2018-07-24T00:31:05.125Z,98167.89
2018-07-24T00:34:39.534Z,98164.84
2018-07-24T00:37:08.237Z,98168.91
2018-07-24T00:39:37.401Z,98168.56
2018-07-24T00:42:06.581Z,98162.61
2018-07-24T00:44:35.766Z,98156.57
2018-07-24T00:47:04.910Z,98155.51
2018-07-24T00:49:34.014Z,98153.28
2018-07-24T00:52:03.193Z,98154.30
2018-07-24T00:54:33.578Z,98148.63
2018-07-24T00:57:02.934Z,98150.61
2018-07-24T00:59:32.054Z,98148.87
2018-07-24T01:02:01.178Z,98146.41
2018-07-24T01:04:30.305Z,98148.88
2018-07-24T01:06:59.411Z,98142.32
2018-07-24T01:09:28.537Z,98146.28
2018-07-24T01:11:58.077Z,98144.84
2018-07-24T01:14:27.193Z,98138.27
2018-07-24T01:16:56.341Z,98145.33
2018-07-24T01:19:25.879Z,98147.68
2018-07-24T01:21:54.997Z,98138.19
2018-07-24T01:24:24.129Z,98143.33
2018-07-24T01:26:53.751Z,98139.13
2018-07-24T01:29:23.549Z,98135.08
2018-07-24T01:31:52.754Z,98136.33
2018-07-24T01:34:21.920Z,98135.50
2018-07-24T01:36:51.025Z,98137.84
2018-07-24T01:39:20.165Z,98138.00
2018-07-24T01:41:54.357Z,98134.14
2018-07-24T01:44:23.517Z,98128.05
2018-07-24T01:46:53.068Z,98129.45
2018-07-24T01:49:23.830Z,98123.09
2018-07-24T01:51:52.922Z,98121.54
2018-07-24T01:54:22.030Z,98125.34
2018-07-24T01:56:51.961Z,98125.28
2018-07-24T01:59:21.077Z,98128.58
2018-07-24T02:01:51.762Z,98130.65
2018-07-24T02:04:20.882Z,98133.23
2018-07-24T02:06:50.014Z,98132.53
2018-07-24T02:09:19.138Z,98129.84
2018-07-24T02:11:48.253Z,98134.53
2018-07-24T02:14:17.390Z,98124.44
2018-07-24T02:16:47.263Z,98126.48
2018-07-24T02:19:16.600Z,98123.48
2018-07-24T02:21:45.737Z,98123.44
2018-07-24T02:24:15.217Z,98119.82
2018-07-24T02:26:44.304Z,98125.09
2018-07-24T02:29:13.506Z,98123.73
2018-07-24T02:31:43.425Z,98122.26
2018-07-24T02:34:13.314Z,98120.00
2018-07-24T02:36:42.658Z,98121.42
2018-07-24T02:39:13.512Z,98121.86
2018-07-24T02:41:42.742Z,98114.02
2018-07-24T02:44:11.859Z,98113.11
2018-07-24T02:46:40.990Z,98109.77
2018-07-24T02:49:10.123Z,98108.88
2018-07-24T02:51:39.435Z,98109.77
2018-07-24T02:54:08.529Z,98111.13
2018-07-24T02:56:37.653Z,98107.00
2018-07-24T02:59:07.226Z,98111.77
2018-07-24T03:01:36.355Z,98111.79
2018-07-24T03:04:05.666Z,98103.56
2018-07-24T03:06:37.281Z,98105.71
2018-07-24T03:09:10.695Z,98101.52
2018-07-24T03:11:39.846Z,98107.98
2018-07-24T03:14:09.865Z,98110.30
2018-07-24T03:16:39.011Z,98111.46
2018-07-24T03:19:08.117Z,98111.52
2018-07-24T03:21:37.226Z,98114.55
2018-07-24T03:24:06.363Z,98107.28
2018-07-24T03:26:35.450Z,98104.77
2018-07-24T03:29:04.537Z,98111.46
2018-07-24T03:31:33.750Z,98109.00
2018-07-24T03:34:02.827Z,98112.20
2018-07-24T03:36:32.050Z,98111.57
2018-07-24T03:39:01.207Z,98115.92
2018-07-24T03:41:30.374Z,98111.56
2018-07-24T03:43:59.473Z,98104.41
2018-07-24T03:46:28.578Z,98108.84
2018-07-24T03:48:57.692Z,98112.30
2018-07-24T03:51:27.126Z,98108.31
2018-07-24T03:53:58.821Z,98107.74
2018-07-24T03:56:27.966Z,98110.27
2018-07-24T03:58:57.099Z,98111.69
2018-07-24T04:01:26.255Z,98113.63
2018-07-24T04:03:55.382Z,98115.34
2018-07-24T04:06:24.546Z,98111.42
2018-07-24T04:08:53.667Z,98111.86
2018-07-24T04:11:22.792Z,98117.17
2018-07-24T04:13:51.923Z,98115.44
2018-07-24T04:16:21.082Z,98109.41
2018-07-24T04:18:50.658Z,98109.28
2018-07-24T04:21:20.357Z,98110.61
2018-07-24T04:23:49.901Z,98111.45
2018-07-24T04:26:19.021Z,98112.78
2018-07-24T04:28:48.114Z,98112.17
2018-07-24T04:31:17.572Z,98110.87
2018-07-24T04:33:47.079Z,98106.66
2018-07-24T04:36:16.754Z,98106.95
2018-07-24T04:38:46.706Z,98111.69
2018-07-24T04:41:15.861Z,98108.11
2018-07-24T04:43:44.990Z,98105.83
2018-07-24T04:46:14.458Z,98100.78
2018-07-24T04:48:43.645Z,98095.73
2018-07-24T04:51:12.770Z,98094.45
2018-07-24T04:53:41.894Z,98091.10
2018-07-24T04:56:10.993Z,98099.07
2018-07-24T04:58:40.098Z,98091.80
2018-07-24T05:01:09.631Z,98090.11
2018-07-24T05:03:38.736Z,98096.78
2018-07-24T05:06:07.878Z,98094.80
2018-07-24T05:08:37.627Z,98094.45
2018-07-24T05:11:07.082Z,98098.64
2018-07-24T05:13:36.837Z,98095.55
2018-07-24T05:16:07.907Z,98091.66
2018-07-24T05:18:37.078Z,98091.62
2018-07-24T05:21:09.786Z,98091.86
2018-07-24T05:23:39.074Z,98090.25
2018-07-24T05:26:08.250Z,98093.39
2018-07-24T05:28:37.790Z,98099.34
2018-07-24T05:31:06.902Z,98095.32
2018-07-24T05:33:36.882Z,98098.20
2018-07-24T05:36:05.989Z,98097.44
2018-07-24T05:38:35.140Z,98092.69
2018-07-24T05:41:04.326Z,98094.38
2018-07-24T05:43:33.449Z,98093.17
2018-07-24T05:46:02.634Z,98090.11
2018-07-24T05:48:32.381Z,98090.77
2018-07-24T05:51:01.443Z,98096.17
2018-07-24T05:53:30.798Z,98090.03
2018-07-24T05:55:59.922Z,98094.45
2018-07-24T05:58:29.502Z,98080.99
2018-07-24T06:00:58.635Z,98078.92
2018-07-24T06:03:27.912Z,98084.60
2018-07-24T06:05:57.410Z,98082.30
2018-07-24T06:08:26.574Z,98081.00
2018-07-24T06:10:55.748Z,98084.07
2018-07-24T06:13:25.094Z,98090.13
2018-07-24T06:15:54.230Z,98079.64
2018-07-24T06:18:23.335Z,98083.97
2018-07-24T06:20:52.425Z,98082.22
2018-07-24T06:23:21.534Z,98078.15
2018-07-24T06:25:50.634Z,98083.83
2018-07-24T06:28:19.750Z,98083.09
2018-07-24T06:30:48.862Z,98075.48
2018-07-24T06:33:18.306Z,98079.12
2018-07-24T06:35:47.411Z,98079.80
2018-07-24T06:38:16.533Z,98081.31
2018-07-24T06:40:45.679Z,98078.77
2018-07-24T06:43:14.798Z,98073.53
2018-07-24T06:45:43.547Z,98074.47
2018-07-24T06:48:12.865Z,98073.03
2018-07-24T06:50:42.221Z,98074.81
2018-07-24T06:53:11.322Z,98075.13
2018-07-24T06:55:40.431Z,98066.00
2018-07-24T06:58:09.570Z,98064.66
2018-07-24T07:00:38.710Z,98063.03
2018-07-24T07:03:08.185Z,98056.83
2018-07-24T07:05:37.327Z,98056.77
2018-07-24T07:08:06.431Z,98055.92
2018-07-24T07:10:35.631Z,98056.55
2018-07-24T07:13:04.748Z,98057.95
2018-07-24T07:15:33.846Z,98051.91
2018-07-24T07:18:02.954Z,98057.05
2018-07-24T07:20:32.290Z,98054.69
2018-07-24T07:23:01.394Z,98055.88
2018-07-24T07:25:30.658Z,98043.86
2018-07-24T07:27:59.773Z,98045.33
2018-07-24T07:30:28.874Z,98044.95
2018-07-24T07:32:58.185Z,98049.06
2018-07-24T07:35:27.284Z,98044.91
2018-07-24T07:37:56.410Z,98048.03
2018-07-24T07:40:25.505Z,98041.72
2018-07-24T07:42:54.841Z,98046.86
2018-07-24T07:45:23.648Z,98042.36
2018-07-24T07:47:52.711Z,98055.13
2018-07-24T07:50:21.819Z,98047.28
2018-07-24T07:52:50.936Z,98047.87
2018-07-24T07:55:20.038Z,98044.95
2018-07-24T07:57:49.186Z,98044.37
2018-07-24T08:00:18.446Z,98042.48
2018-07-24T08:02:47.550Z,98036.88
2018-07-24T08:05:16.797Z,98037.27
2018-07-24T08:07:45.894Z,98032.32
2018-07-24T08:10:14.995Z,98033.86
2018-07-24T08:12:44.143Z,98033.99
2018-07-24T08:15:13.234Z,98028.66
2018-07-24T08:17:42.350Z,98030.88
2018-07-24T08:20:11.454Z,98031.84
2018-07-24T08:22:40.565Z,98022.79
2018-07-24T08:25:09.646Z,98027.28
2018-07-24T08:27:38.790Z,98018.47
2018-07-24T08:30:09.118Z,98015.19
2018-07-24T08:32:38.220Z,98016.61
2018-07-24T08:35:07.308Z,98017.36
2018-07-24T08:37:36.791Z,98024.03
2018-07-24T08:40:05.893Z,98014.23
2018-07-24T08:42:35.183Z,98015.67
2018-07-24T08:45:04.671Z,98014.66
2018-07-24T08:47:33.350Z,98008.91
2018-07-24T08:50:02.611Z,98006.83
2018-07-24T08:52:31.763Z,98007.66
2018-07-24T08:55:01.110Z,98009.25
2018-07-24T08:57:29.926Z,98009.34
2018-07-24T08:59:59.047Z,98004.16
2018-07-24T09:02:28.158Z,98005.84
2018-07-24T09:04:57.290Z,98002.82
2018-07-24T09:07:26.435Z,98005.36
2018-07-24T09:09:55.520Z,98001.47
2018-07-24T09:12:24.630Z,98002.05
2018-07-24T09:14:53.761Z,97999.08
2018-07-24T09:17:22.861Z,97987.05
2018-07-24T09:19:51.957Z,97990.66
2018-07-24T09:22:21.094Z,97991.05
2018-07-24T09:24:50.238Z,97989.52
2018-07-24T09:27:19.365Z,97989.31
2018-07-24T09:29:48.454Z,97988.00
2018-07-24T09:32:17.590Z,97985.91
2018-07-24T09:34:46.685Z,97987.41
2018-07-24T09:37:15.958Z,97996.56
2018-07-24T09:39:45.682Z,97992.89
2018-07-24T09:42:14.774Z,97992.67
2018-07-24T09:44:44.505Z,97984.88
2018-07-24T09:47:13.894Z,97977.02
2018-07-24T09:49:42.989Z,97988.48
2018-07-24T09:52:12.094Z,97988.32
2018-07-24T09:54:41.402Z,97988.93
2018-07-24T09:57:10.507Z,97993.52
2018-07-24T09:59:39.590Z,97980.09
2018-07-24T10:02:08.727Z,97976.49
2018-07-24T10:04:37.830Z,97972.23
2018-07-24T10:07:06.934Z,97969.48
2018-07-24T10:09:36.049Z,97968.59
2018-07-24T10:12:05.191Z,97964.25
2018-07-24T10:14:34.263Z,97963.02
2018-07-24T10:17:03.371Z,97968.19
2018-07-24T10:19:32.463Z,97963.95
2018-07-24T10:22:01.574Z,97957.53
2018-07-24T10:24:31.025Z,97956.91
2018-07-24T10:27:00.109Z,97950.80
2018-07-24T10:29:29.437Z,97954.42
2018-07-24T10:31:59.338Z,97950.95
2018-07-24T10:34:28.474Z,97948.99
2018-07-24T10:36:57.590Z,97943.84
2018-07-24T10:39:26.810Z,97940.66
2018-07-24T10:41:56.499Z,97947.08
2018-07-24T10:44:25.592Z,97932.24
2018-07-24T10:46:54.841Z,97936.77
2018-07-24T10:49:24.105Z,97932.91
2018-07-24T10:51:53.354Z,97932.34
2018-07-24T10:54:23.062Z,97930.23
2018-07-24T10:56:52.749Z,97929.08
2018-07-24T10:59:21.862Z,97924.08
2018-07-24T11:01:51.458Z,97923.45
2018-07-24T11:04:20.770Z,97918.66
2018-07-24T11:06:50.489Z,97915.32
2018-07-24T11:09:20.218Z,97914.55
2018-07-24T11:11:49.862Z,97911.55
2018-07-24T11:14:20.564Z,97926.51
2018-07-24T11:16:49.701Z,97917.54
2018-07-24T11:19:18.790Z,97922.59
2018-07-24T11:21:48.283Z,97918.01
2018-07-24T11:24:17.426Z,97902.45
2018-07-24T11:26:46.517Z,97904.28
2018-07-24T11:29:15.682Z,97907.03
2018-07-24T11:31:44.801Z,97904.67
2018-07-24T11:34:14.001Z,97901.22
2018-07-24T11:36:43.171Z,97909.04
2018-07-24T11:39:12.602Z,97902.14
2018-07-24T11:41:41.701Z,97890.50
2018-07-24T11:44:10.852Z,97893.27
2018-07-24T11:46:40.215Z,97895.06
2018-07-24T11:49:09.212Z,97893.83
2018-07-24T11:51:38.378Z,97887.91
2018-07-24T11:54:07.434Z,97885.63
2018-07-24T11:56:36.577Z,97885.34
2018-07-24T11:59:06.823Z,97878.23
2018-07-24T12:01:36.003Z,97880.83
2018-07-24T12:04:05.334Z,97867.92
2018-07-24T12:06:34.498Z,97869.15
2018-07-24T12:09:04.226Z,97871.85
2018-07-24T12:11:33.555Z,97865.48
2018-07-24T12:14:03.703Z,97868.88
2018-07-24T12:16:33.058Z,97873.47
2018-07-24T12:19:02.267Z,97863.48
2018-07-24T12:21:31.503Z,97861.52
2018-07-24T12:24:00.676Z,97859.58
2018-07-24T12:26:29.769Z,97854.80
2018-07-24T12:28:59.202Z,97859.83
2018-07-24T12:31:28.329Z,97853.25
2018-07-24T12:33:57.465Z,97848.47
2018-07-24T12:36:26.605Z,97853.16
2018-07-24T12:38:55.734Z,97849.30
2018-07-24T12:41:24.458Z,97851.87
2018-07-24T12:43:53.565Z,97848.03
2018-07-24T12:46:22.769Z,97849.75
2018-07-24T12:48:51.894Z,97847.52
2018-07-24T12:51:21.050Z,97847.16
2018-07-24T12:53:50.176Z,97850.38
2018-07-24T12:56:19.282Z,97843.87
2018-07-24T12:58:48.413Z,97838.13
2018-07-24T13:01:17.507Z,97836.08
2018-07-24T13:03:46.634Z,97828.77
2018-07-24T13:06:15.806Z,97829.31
2018-07-24T13:08:44.898Z,97829.31
2018-07-24T13:11:14.138Z,97832.80
2018-07-24T13:13:43.253Z,97821.53
2018-07-24T13:16:12.603Z,97823.94
2018-07-24T13:18:41.909Z,97819.30
2018-07-24T13:21:11.653Z,97809.06
2018-07-24T13:23:40.743Z,97804.05
2018-07-24T13:26:10.070Z,97808.84
2018-07-24T13:28:39.359Z,97813.81
2018-07-24T13:31:09.102Z,97802.12
2018-07-24T13:33:38.216Z,97798.61
2018-07-24T13:36:07.802Z,97797.45
2018-07-24T13:38:36.913Z,97800.41
2018-07-24T13:41:06.964Z,97796.11
2018-07-24T13:43:36.530Z,97797.58
2018-07-24T13:46:05.811Z,97793.98
2018-07-24T13:48:36.060Z,97789.83
2018-07-24T13:51:06.217Z,97786.94
2018-07-24T13:53:35.318Z,97787.64
2018-07-24T13:56:04.517Z,97786.80
2018-07-24T13:58:33.610Z,97791.68
2018-07-24T14:01:02.706Z,97791.98
2018-07-24T14:03:32.258Z,97785.09
2018-07-24T14:06:01.526Z,97786.94
2018-07-24T14:08:30.915Z,97787.67
2018-07-24T14:10:59.953Z,97793.62
2018-07-24T14:13:29.086Z,97788.64
2018-07-24T14:15:58.183Z,97788.00
2018-07-24T14:18:27.346Z,97786.58
2018-07-24T14:20:56.834Z,97781.30
2018-07-24T14:23:26.426Z,97789.19
2018-07-24T14:25:55.790Z,97783.05
2018-07-24T14:28:24.871Z,97789.98
2018-07-24T14:30:56.503Z,97786.55
2018-07-24T14:33:25.597Z,97781.19
2018-07-24T14:35:54.689Z,97778.33
2018-07-24T14:38:23.810Z,97780.45
2018-07-24T14:40:53.306Z,97788.13
2018-07-24T14:43:22.449Z,97774.96
2018-07-24T14:45:52.374Z,97774.60
2018-07-24T14:48:21.598Z,97771.31
2018-07-24T14:50:50.698Z,97769.11
2018-07-24T14:53:20.498Z,97765.18
2018-07-24T14:55:49.574Z,97763.73
2018-07-24T14:58:18.665Z,97762.95
2018-07-24T15:00:47.804Z,97768.44
2018-07-24T15:03:16.918Z,97763.66
2018-07-24T15:05:46.282Z,97761.57
2018-07-24T15:08:16.092Z,97759.03
2018-07-24T15:10:45.814Z,97757.47
2018-07-24T15:13:15.064Z,97756.36
2018-07-24T15:15:44.905Z,97760.53
2018-07-24T15:18:15.170Z,97756.12
2018-07-24T15:20:45.655Z,97759.78
2018-07-24T15:23:15.092Z,97753.26
2018-07-24T15:25:44.779Z,97754.39
2018-07-24T15:28:14.237Z,97745.30
2018-07-24T15:30:44.042Z,97747.98
2018-07-24T15:33:13.471Z,97747.73
2018-07-24T15:35:43.644Z,97739.39
2018-07-24T15:38:12.867Z,97737.02
2018-07-24T15:40:42.110Z,97730.23
2018-07-24T15:43:11.318Z,97734.41
2018-07-24T15:45:43.102Z,97734.91
2018-07-24T15:48:12.169Z,97730.34
2018-07-24T15:50:43.361Z,97730.22
2018-07-24T15:53:13.309Z,97727.90
2018-07-24T15:55:42.491Z,97731.14
2018-07-24T15:58:11.826Z,97720.13
2018-07-24T16:00:40.931Z,97730.77
2018-07-24T16:03:10.038Z,97726.58
2018-07-24T16:05:39.173Z,97716.16
2018-07-24T16:08:08.333Z,97722.77
2018-07-24T16:10:38.059Z,97719.73
2018-07-24T16:13:07.146Z,97718.92
2018-07-24T16:15:36.305Z,97719.08
2018-07-24T16:18:05.363Z,97726.61
2018-07-24T16:20:34.468Z,97723.36
2018-07-24T16:23:03.851Z,97728.14
2018-07-24T16:25:34.009Z,97727.74
2018-07-24T16:28:03.661Z,97722.53
2018-07-24T16:30:32.835Z,97731.14
2018-07-24T16:33:02.169Z,97737.21
2018-07-24T16:35:31.502Z,97737.75
2018-07-24T16:38:00.661Z,97728.70
2018-07-24T16:40:29.805Z,97726.78
2018-07-24T16:42:58.980Z,97725.77
2018-07-24T16:45:28.782Z,97735.25
2018-07-24T16:47:58.652Z,97732.02
2018-07-24T16:50:28.096Z,97733.64
2018-07-24T16:52:57.397Z,97730.89
2018-07-24T16:55:26.717Z,97733.08
2018-07-24T16:57:56.051Z,97728.73
2018-07-24T17:00:25.136Z,97728.89
2018-07-24T17:02:54.345Z,97725.93
2018-07-24T17:05:23.807Z,97736.23
2018-07-24T17:07:52.965Z,97732.50
2018-07-24T17:10:22.156Z,97736.80
2018-07-24T17:12:52.008Z,97735.55
2018-07-24T17:15:21.114Z,97734.16
2018-07-24T17:17:50.242Z,97736.73
2018-07-24T17:20:19.492Z,97740.28
2018-07-24T17:22:49.208Z,97738.03
2018-07-24T17:25:19.126Z,97741.16
2018-07-24T17:27:49.009Z,97737.24
2018-07-24T17:30:18.069Z,97743.50
2018-07-24T17:32:47.230Z,97735.12
2018-07-24T17:35:16.404Z,97740.20
2018-07-24T17:37:46.346Z,97741.87
2018-07-24T17:40:15.705Z,97740.52
2018-07-24T17:42:44.859Z,97738.29
2018-07-24T17:45:14.372Z,97742.30
2018-07-24T17:47:43.477Z,97747.83
2018-07-24T17:50:12.581Z,97740.80
2018-07-24T17:52:41.707Z,97745.64
2018-07-24T17:55:10.847Z,97747.80
2018-07-24T17:57:39.713Z,97745.61
2018-07-24T18:00:09.039Z,97751.06
2018-07-24T18:02:38.117Z,97754.57
2018-07-24T18:05:07.254Z,97750.13
2018-07-24T18:07:36.914Z,97755.95
2018-07-24T18:10:06.058Z,97758.79
2018-07-24T18:12:35.187Z,97751.77
2018-07-24T18:15:04.759Z,97751.84
2018-07-24T18:17:34.294Z,97749.53
2018-07-24T18:20:03.542Z,97750.63
2018-07-24T18:22:34.451Z,97753.27
2018-07-24T18:25:05.657Z,97750.21
2018-07-24T18:27:34.814Z,97761.17
2018-07-24T18:30:03.963Z,97760.27
2018-07-24T18:32:33.701Z,97759.59
2018-07-24T18:35:02.830Z,97762.34
2018-07-24T18:37:31.923Z,97764.98
2018-07-24T18:40:01.034Z,97759.23
2018-07-24T18:42:30.182Z,97758.52
2018-07-24T18:44:59.299Z,97762.63
2018-07-24T18:47:28.446Z,97768.56
2018-07-24T18:49:58.756Z,97768.62
2018-07-24T18:52:27.842Z,97770.77
2018-07-24T18:54:57.054Z,97771.80
2018-07-24T18:57:26.199Z,97767.70
2018-07-24T18:59:55.444Z,97768.55
2018-07-24T19:02:24.594Z,97772.53
2018-07-24T19:04:55.221Z,97779.55
2018-07-24T19:07:24.415Z,97787.89
2018-07-24T19:09:53.919Z,97788.73
2018-07-24T19:12:23.065Z,97787.81
2018-07-24T19:14:52.235Z,97786.62
2018-07-24T19:17:21.382Z,97794.38
2018-07-24T19:19:50.606Z,97792.33
2018-07-24T19:22:19.794Z,97792.84
2018-07-24T19:24:50.525Z,97800.94
2018-07-24T19:27:19.650Z,97802.24
2018-07-24T19:29:49.205Z,97801.88
2018-07-24T19:32:18.875Z,97804.59
2018-07-24T19:34:48.073Z,97800.30
2018-07-24T19:37:17.161Z,97809.63
2018-07-24T19:39:46.276Z,97813.88
2018-07-24T19:42:15.458Z,97810.45
2018-07-24T19:44:44.643Z,97823.59
2018-07-24T19:47:13.738Z,97817.53
2018-07-24T19:49:42.917Z,97821.25
2018-07-24T19:52:12.019Z,97820.87
2018-07-24T19:54:41.471Z,97825.80
2018-07-24T19:57:10.617Z,97830.01
2018-07-24T19:59:40.051Z,97828.73
2018-07-24T20:02:09.359Z,97833.00
2018-07-24T20:04:38.751Z,97832.47
2018-07-24T20:07:07.844Z,97832.62
2018-07-24T20:09:36.989Z,97832.94
2018-07-24T20:12:06.095Z,97833.64
2018-07-24T20:14:35.215Z,97834.27
2018-07-24T20:17:04.350Z,97835.24
2018-07-24T20:19:33.442Z,97840.41
2018-07-24T20:22:02.539Z,97846.86
2018-07-24T20:24:31.684Z,97841.08
2018-07-24T20:27:00.790Z,97845.23
2018-07-24T20:29:29.928Z,97845.91
2018-07-24T20:31:59.018Z,97849.22
2018-07-24T20:34:28.106Z,97842.83
2018-07-24T20:36:57.386Z,97839.19
2018-07-24T20:39:26.530Z,97843.86
2018-07-24T20:41:55.646Z,97845.72
2018-07-24T20:44:24.746Z,97848.75
2018-07-24T20:46:53.832Z,97845.24
2018-07-24T20:49:22.958Z,97850.84
2018-07-24T20:51:52.120Z,97855.23
2018-07-24T20:54:21.214Z,97857.36
2018-07-24T20:56:50.354Z,97855.41
2018-07-24T20:59:19.537Z,97858.17
2018-07-24T21:01:48.877Z,97858.57
2018-07-24T21:04:18.146Z,97859.18
2018-07-24T21:06:47.424Z,97859.32
2018-07-24T21:09:16.191Z,97862.20
2018-07-24T21:11:45.668Z,97860.92
2018-07-24T21:14:14.802Z,97863.91
2018-07-24T21:16:43.954Z,97866.55
2018-07-24T21:19:13.103Z,97865.58
2018-07-24T21:21:42.207Z,97868.02
2018-07-24T21:24:12.118Z,97863.95
2018-07-24T21:26:41.042Z,97863.52
2018-07-24T21:29:10.171Z,97866.34
2018-07-24T21:31:39.272Z,97871.03
2018-07-24T21:34:08.439Z,97872.29
2018-07-24T21:36:37.635Z,97870.53
2018-07-24T21:39:10.066Z,97869.25
2018-07-24T21:41:39.278Z,97884.84
2018-07-24T21:44:08.558Z,97886.41
2018-07-24T21:46:37.929Z,97881.99
2018-07-24T21:49:07.110Z,97880.70
2018-07-24T21:51:36.182Z,97880.45
2018-07-24T21:54:05.296Z,97881.98
2018-07-24T21:56:34.427Z,97884.86
2018-07-24T21:59:03.516Z,97885.10
2018-07-24T22:01:32.607Z,97885.61
2018-07-24T22:04:01.962Z,97888.19
2018-07-24T22:06:31.046Z,97887.66
2018-07-24T22:09:00.364Z,97894.91
2018-07-24T22:11:29.276Z,97885.80
2018-07-24T22:13:58.370Z,97893.55
2018-07-24T22:16:27.493Z,97895.39
2018-07-24T22:18:57.000Z,97898.48
2018-07-24T22:21:26.130Z,97898.72
2018-07-24T22:23:55.246Z,97900.00
2018-07-24T22:26:24.394Z,97903.09
2018-07-24T22:28:53.494Z,97903.86
2018-07-24T22:31:22.798Z,97906.89
2018-07-24T22:33:52.152Z,97901.47
2018-07-24T22:36:21.509Z,97903.31
2018-07-24T22:38:51.522Z,97901.26
2018-07-24T22:41:20.620Z,97910.55
2018-07-24T22:43:49.722Z,97901.67
2018-07-24T22:46:19.746Z,97900.30
2018-07-24T22:48:49.890Z,97904.68
2018-07-24T22:51:19.098Z,97907.59
2018-07-24T22:53:47.743Z,97905.21
2018-07-24T22:56:16.896Z,97902.06
2018-07-24T22:58:45.994Z,97904.58
2018-07-24T23:01:15.284Z,97902.75
2018-07-24T23:03:44.828Z,97902.67
2018-07-24T23:06:14.101Z,97909.39
2018-07-24T23:08:43.190Z,97908.28
2018-07-24T23:11:12.286Z,97916.30
2018-07-24T23:13:41.428Z,97914.98
2018-07-24T23:16:10.561Z,97915.45
2018-07-24T23:18:39.689Z,97917.41
2018-07-24T23:21:08.786Z,97916.01
2018-07-24T23:23:38.533Z,97912.67
2018-07-24T23:26:08.373Z,97921.38
2018-07-24T23:28:39.069Z,97915.19
2018-07-24T23:31:08.170Z,97913.58
2018-07-24T23:33:37.253Z,97924.06
2018-07-24T23:36:06.363Z,97915.34
2018-07-24T23:38:35.446Z,97917.38
2018-07-24T23:41:04.529Z,97913.77
2018-07-24T23:43:33.686Z,97919.31
2018-07-24T23:46:02.798Z,97915.88
2018-07-24T23:48:31.877Z,97916.02
2018-07-24T23:51:01.026Z,97918.83
2018-07-24T23:53:29.778Z,97917.54
2018-07-24T23:55:58.914Z,97917.45
2018-07-24T23:58:28.055Z,97913.42
